createdAt,value
2022-11-26T04:53:00.975Z,28.20
2022-11-26T04:55:29.777Z,28.97
2022-11-26T04:57:58.691Z,31.80
2022-11-26T05:00:27.051Z,28.37
2022-11-26T05:02:55.694Z,29.93
2022-11-26T05:05:24.164Z,31.60
2022-11-26T05:07:52.838Z,28.77
2022-11-26T05:10:23.100Z,30.40
2022-11-26T05:12:51.922Z,31.20
2022-11-26T05:15:20.556Z,28.47
2022-11-26T05:17:48.997Z,26.40
2022-11-26T05:20:19.505Z,28.20
2022-11-26T05:22:48.164Z,27.77
2022-11-26T05:25:17.114Z,30.03
2022-11-26T05:27:47.004Z,27.13
2022-11-26T05:30:16.424Z,27.87
2022-11-26T05:32:46.210Z,27.07
2022-11-26T05:35:14.870Z,24.33
2022-11-26T05:37:43.400Z,28.20
2022-11-26T05:40:13.622Z,26.00
2022-11-26T05:42:43.523Z,24.83
2022-11-26T05:45:14.741Z,26.40
2022-11-26T05:47:43.518Z,23.83
2022-11-26T05:50:12.651Z,22.23
2022-11-26T05:52:41.331Z,23.93
2022-11-26T05:55:11.552Z,26.30
2022-11-26T05:57:40.294Z,20.73
2022-11-26T06:00:11.664Z,26.20
2022-11-26T06:02:42.959Z,20.97
2022-11-26T06:05:12.352Z,22.10
2022-11-26T06:07:44.669Z,22.87
2022-11-26T06:10:14.112Z,21.83
2022-11-26T06:12:42.655Z,20.80
2022-11-26T06:15:12.279Z,19.07
2022-11-26T06:17:44.880Z,20.67
2022-11-26T06:20:14.178Z,19.70
2022-11-26T06:22:47.375Z,24.57
2022-11-26T06:25:16.312Z,20.60
2022-11-26T06:27:44.722Z,24.23
2022-11-26T06:30:14.078Z,20.50
2022-11-26T06:32:44.167Z,21.87
2022-11-26T06:35:12.740Z,19.57
2022-11-26T06:37:41.813Z,21.93
2022-11-26T06:40:16.538Z,20.00
2022-11-26T06:42:50.260Z,20.10
2022-11-26T06:45:20.749Z,21.07
2022-11-26T06:47:52.474Z,16.83
2022-11-26T06:50:23.611Z,19.50
2022-11-26T06:52:53.460Z,16.60
2022-11-26T06:55:22.796Z,19.13
2022-11-26T06:57:52.425Z,14.83
2022-11-26T07:00:22.149Z,18.60
2022-11-26T07:02:52.418Z,15.40
2022-11-26T07:05:23.603Z,13.83
2022-11-26T07:07:54.496Z,15.47
2022-11-26T07:10:23.214Z,17.83
2022-11-26T07:12:51.585Z,16.77
2022-11-26T07:15:22.532Z,16.10
2022-11-26T07:17:52.495Z,16.30
2022-11-26T07:20:21.203Z,16.37
2022-11-26T07:22:49.857Z,16.83
2022-11-26T07:25:18.839Z,17.17
2022-11-26T07:27:47.443Z,17.30
2022-11-26T07:30:16.536Z,15.63
2022-11-26T07:32:44.924Z,17.27
2022-11-26T07:35:14.769Z,14.50
2022-11-26T07:37:43.559Z,12.63
2022-11-26T07:40:12.719Z,18.83
2022-11-26T07:42:42.920Z,15.03
2022-11-26T07:45:12.193Z,16.10
2022-11-26T07:47:40.657Z,16.80
2022-11-26T07:50:11.711Z,15.37
2022-11-26T07:52:42.072Z,16.77
2022-11-26T07:55:12.731Z,13.23
2022-11-26T07:57:41.538Z,14.13
2022-11-26T08:00:14.128Z,15.97
2022-11-26T08:02:46.906Z,15.00
2022-11-26T08:05:21.199Z,15.33
2022-11-26T08:07:51.201Z,13.10
2022-11-26T08:10:25.607Z,13.50
2022-11-26T08:12:54.143Z,14.00
2022-11-26T08:15:23.029Z,13.80
2022-11-26T08:17:51.365Z,35.57
2022-11-26T08:20:23.332Z,15.17
2022-11-26T08:22:57.435Z,14.43
2022-11-26T08:25:25.889Z,12.77
2022-11-26T08:27:54.337Z,12.20
2022-11-26T08:30:22.864Z,11.47
2022-11-26T08:32:51.693Z,10.83
2022-11-26T08:35:20.460Z,10.60
2022-11-26T08:37:49.251Z,8.97
2022-11-26T08:40:19.322Z,10.50
2022-11-26T08:42:47.842Z,10.57
2022-11-26T08:45:16.304Z,12.70
2022-11-26T08:47:44.758Z,9.73
2022-11-26T08:50:14.756Z,10.50
2022-11-26T08:52:43.415Z,10.50
2022-11-26T08:55:12.333Z,28.13
2022-11-26T08:57:42.103Z,22.93
2022-11-26T09:00:14.143Z,11.73
2022-11-26T09:02:42.791Z,11.47
2022-11-26T09:05:11.550Z,9.40
2022-11-26T09:07:40.176Z,10.37
2022-11-26T09:10:11.145Z,10.07
2022-11-26T09:12:41.360Z,10.67
2022-11-26T09:15:11.259Z,10.57
2022-11-26T09:17:43.672Z,9.23
2022-11-26T09:20:13.256Z,9.17
2022-11-26T09:22:42.182Z,8.73
2022-11-26T09:25:12.500Z,7.93
2022-11-26T09:27:42.898Z,9.47
2022-11-26T09:30:13.022Z,8.80
2022-11-26T09:32:41.721Z,10.07
2022-11-26T09:35:16.273Z,8.20
2022-11-26T09:37:50.081Z,9.33
2022-11-26T09:40:21.675Z,9.03
2022-11-26T09:43:07.286Z,8.63
2022-11-26T09:45:44.027Z,9.63
2022-11-26T09:48:23.258Z,7.83
2022-11-26T09:50:58.763Z,7.87
2022-11-26T09:53:33.259Z,8.77
2022-11-26T09:56:02.724Z,10.23
2022-11-26T09:58:45.407Z,8.03
2022-11-26T10:01:19.681Z,10.70
2022-11-26T10:03:48.297Z,8.77
2022-11-26T10:06:30.763Z,8.63
2022-11-26T10:09:21.212Z,7.67
2022-11-26T10:11:58.784Z,7.90
2022-11-26T10:14:43.298Z,7.80
2022-11-26T10:17:30.813Z,6.70
2022-11-26T10:20:19.716Z,7.60
2022-11-26T10:22:57.394Z,7.27
2022-11-26T10:25:29.574Z,8.33
2022-11-26T10:28:06.010Z,7.80
2022-11-26T10:30:36.310Z,7.57
2022-11-26T10:33:08.706Z,7.60
2022-11-26T10:35:38.796Z,8.10
2022-11-26T10:38:12.815Z,7.50
2022-11-26T10:40:41.519Z,7.90
2022-11-26T10:43:18.777Z,6.87
2022-11-26T10:45:51.594Z,8.47
2022-11-26T10:48:29.106Z,7.53
2022-11-26T10:51:01.220Z,7.97
2022-11-26T10:53:52.020Z,9.00
2022-11-26T10:56:30.929Z,8.27
2022-11-26T10:59:03.895Z,10.10
2022-11-26T11:01:39.712Z,9.47
2022-11-26T11:04:25.437Z,9.40
2022-11-26T11:06:54.135Z,9.57
2022-11-26T11:09:41.191Z,10.23
2022-11-26T11:12:26.049Z,8.77
2022-11-26T11:14:55.035Z,8.57
2022-11-26T11:17:40.559Z,10.87
2022-11-26T11:20:30.989Z,9.17
2022-11-26T11:23:19.398Z,9.23
2022-11-26T11:26:00.090Z,10.77
2022-11-26T11:28:32.195Z,10.27
2022-11-26T11:31:06.440Z,9.73
2022-11-26T11:33:37.380Z,9.43
2022-11-26T11:36:16.274Z,9.93
2022-11-26T11:38:50.906Z,8.87
2022-11-26T11:41:26.831Z,8.80
2022-11-26T11:44:15.775Z,11.27
2022-11-26T11:47:13.006Z,10.63
2022-11-26T11:50:13.493Z,9.67
2022-11-26T11:52:57.738Z,8.90
2022-11-26T11:55:37.052Z,10.63
2022-11-26T11:58:28.302Z,9.80
2022-11-26T12:01:05.990Z,9.90
2022-11-26T12:04:19.809Z,9.87
2022-11-26T12:07:20.917Z,7.83
2022-11-26T12:09:58.691Z,8.50
2022-11-26T12:12:36.561Z,8.27
2022-11-26T12:15:10.162Z,7.07
2022-11-26T12:17:44.860Z,7.70
2022-11-26T12:20:21.475Z,9.40
2022-11-26T12:22:59.141Z,6.87
2022-11-26T12:25:35.339Z,7.50
2022-11-26T12:28:13.914Z,7.50
2022-11-26T12:30:50.258Z,7.20
2022-11-26T12:33:24.465Z,6.97
2022-11-26T12:35:56.693Z,5.80
2022-11-26T12:38:31.232Z,5.90
2022-11-26T12:41:03.495Z,6.77
2022-11-26T12:43:50.636Z,5.97
2022-11-26T12:46:24.229Z,5.57
2022-11-26T12:49:00.361Z,5.73
2022-11-26T12:51:41.721Z,5.77
2022-11-26T12:54:19.809Z,6.63
2022-11-26T12:56:58.237Z,5.60
2022-11-26T12:59:33.809Z,6.23
2022-11-26T13:02:19.861Z,5.40
2022-11-26T13:04:48.828Z,6.00
2022-11-26T13:07:28.599Z,5.23
2022-11-26T13:13:15.951Z,5.83
2022-11-26T13:15:59.858Z,6.40
2022-11-26T13:18:35.339Z,5.47
2022-11-26T13:21:18.934Z,5.50
2022-11-26T13:24:03.142Z,5.90
2022-11-26T13:26:49.002Z,7.03
2022-11-26T13:29:38.858Z,5.80
2022-11-26T13:32:35.249Z,6.30
2022-11-26T13:35:23.836Z,5.60
2022-11-26T13:38:11.091Z,5.53
2022-11-26T13:41:07.457Z,5.40
2022-11-26T13:44:09.278Z,5.77
2022-11-26T13:46:44.596Z,6.30
2022-11-26T13:49:19.496Z,7.03
2022-11-26T13:51:54.769Z,5.87
2022-11-26T13:54:28.191Z,5.47
2022-11-26T13:57:02.122Z,7.13
2022-11-26T13:59:32.788Z,6.57
2022-11-26T14:02:44.619Z,8.20
2022-11-26T14:05:18.320Z,7.63
2022-11-26T14:07:48.240Z,6.43
2022-11-26T14:10:43.641Z,8.73
2022-11-26T14:13:16.031Z,8.13
2022-11-26T14:16:09.781Z,7.40
2022-11-26T14:19:01.325Z,8.50
2022-11-26T14:21:32.580Z,9.20
2022-11-26T14:24:03.471Z,7.13
2022-11-26T14:26:37.748Z,9.90
2022-11-26T14:29:14.382Z,6.93
2022-11-26T14:31:52.562Z,6.77
2022-11-26T14:34:29.201Z,6.60
2022-11-26T14:37:00.348Z,8.27
2022-11-26T14:39:31.815Z,7.40
2022-11-26T14:42:06.052Z,9.03
2022-11-26T14:44:35.472Z,9.47
2022-11-26T14:47:17.604Z,7.93
2022-11-26T14:49:51.253Z,7.57
2022-11-26T14:52:22.973Z,9.53
2022-11-26T14:54:55.033Z,7.90
2022-11-26T14:57:27.681Z,8.93
2022-11-26T14:59:58.214Z,9.13
2022-11-26T15:02:31.430Z,8.50
2022-11-26T15:05:03.165Z,7.10
2022-11-26T15:07:36.223Z,6.47
2022-11-26T15:10:22.686Z,7.60
2022-11-26T15:12:58.028Z,7.87
2022-11-26T15:15:31.244Z,7.63
2022-11-26T15:18:07.017Z,6.33
2022-11-26T15:20:40.903Z,7.43
2022-11-26T15:23:18.826Z,7.70
2022-11-26T15:25:52.237Z,9.67
2022-11-26T15:28:24.658Z,9.23
2022-11-26T15:31:01.385Z,7.30
2022-11-26T15:33:35.778Z,9.30
2022-11-26T15:36:06.861Z,8.20
2022-11-26T15:38:36.853Z,7.63
2022-11-26T15:41:09.377Z,6.77
2022-11-26T15:43:44.588Z,7.80
2022-11-26T15:46:17.833Z,6.33
2022-11-26T15:48:52.795Z,8.27
2022-11-26T15:51:33.772Z,6.50
2022-11-26T15:54:06.235Z,7.00
2022-11-26T15:56:38.551Z,6.70
2022-11-26T15:59:17.742Z,7.03
2022-11-26T16:01:52.211Z,7.63
2022-11-26T16:04:44.162Z,7.43
2022-11-26T16:07:15.968Z,6.93
2022-11-26T16:09:46.534Z,7.67
2022-11-26T16:12:33.031Z,9.67
2022-11-26T16:15:21.219Z,8.83
2022-11-26T16:17:51.032Z,6.80
2022-11-26T16:20:29.966Z,9.33
2022-11-26T16:23:01.069Z,7.93
2022-11-26T16:25:31.831Z,6.20
2022-11-26T16:28:09.100Z,8.90
2022-11-26T16:30:38.712Z,7.73
2022-11-26T16:33:11.315Z,7.67
2022-11-26T16:35:46.091Z,7.77
2022-11-26T16:38:21.520Z,7.20
2022-11-26T16:40:56.278Z,7.30
2022-11-26T16:43:25.163Z,8.93
2022-11-26T16:45:56.974Z,7.47
2022-11-26T16:48:30.233Z,5.80
2022-11-26T16:51:00.142Z,6.80
2022-11-26T16:53:32.458Z,6.50
2022-11-26T16:56:01.920Z,6.70
2022-11-26T16:58:33.655Z,5.93
2022-11-26T17:01:03.240Z,6.03
2022-11-26T17:03:34.434Z,5.60
2022-11-26T17:06:12.446Z,6.83
2022-11-26T17:08:45.055Z,6.97
2022-11-26T17:11:16.686Z,7.37
2022-11-26T17:13:46.842Z,7.50
2022-11-26T17:16:17.840Z,7.10
2022-11-26T17:18:48.334Z,9.57
2022-11-26T17:21:19.989Z,7.50
2022-11-26T17:23:49.178Z,8.37
2022-11-26T17:26:21.562Z,8.47
2022-11-26T17:28:52.090Z,10.20
2022-11-26T17:31:21.027Z,8.47
2022-11-26T17:33:51.222Z,9.73
2022-11-26T17:36:27.086Z,9.03
2022-11-26T17:38:56.504Z,11.00
2022-11-26T17:41:44.091Z,9.81
2022-11-26T17:44:12.870Z,9.53
2022-11-26T17:47:09.047Z,10.07
2022-11-26T17:49:42.042Z,12.57
2022-11-26T17:52:12.602Z,12.60
2022-11-26T17:54:47.923Z,14.20
2022-11-26T17:57:23.025Z,12.97
2022-11-26T17:59:53.644Z,10.30
2022-11-26T18:02:26.355Z,9.30
2022-11-26T18:04:55.722Z,9.00
2022-11-26T18:07:30.283Z,11.17
2022-11-26T18:10:05.947Z,9.87
2022-11-26T18:12:35.590Z,7.83
2022-11-26T18:15:18.456Z,10.40
2022-11-26T18:17:50.807Z,12.37
2022-11-26T18:20:22.882Z,9.37
2022-11-26T18:23:02.036Z,8.77
2022-11-26T18:25:34.811Z,8.83
2022-11-26T18:28:04.833Z,8.73
2022-11-26T18:30:39.276Z,9.40
2022-11-26T18:33:07.881Z,8.07
2022-11-26T18:35:42.319Z,8.30
2022-11-26T18:38:13.135Z,8.47
2022-11-26T18:40:41.785Z,9.23
2022-11-26T18:43:12.725Z,9.57
2022-11-26T18:45:43.895Z,9.30
2022-11-26T18:48:12.479Z,9.37
2022-11-26T18:50:40.884Z,9.37
2022-11-26T18:53:09.736Z,9.13
2022-11-26T18:55:44.658Z,8.57
2022-11-26T18:58:17.600Z,9.23
2022-11-26T19:00:54.271Z,14.50
2022-11-26T19:03:30.380Z,11.87
2022-11-26T19:06:05.605Z,10.07
2022-11-26T19:08:39.238Z,16.23
2022-11-26T19:11:21.149Z,16.13
2022-11-26T19:13:50.807Z,12.47
2022-11-26T19:16:23.015Z,16.07
2022-11-26T19:18:54.387Z,15.37
2022-11-26T19:21:25.282Z,14.27
2022-11-26T19:23:55.491Z,15.60
2022-11-26T19:26:25.811Z,15.93
2022-11-26T19:29:05.144Z,15.07
2022-11-26T19:31:36.109Z,12.87
2022-11-26T19:34:08.164Z,11.70
2022-11-26T19:36:39.110Z,13.63
2022-11-26T19:39:08.978Z,12.17
2022-11-26T19:41:39.211Z,13.60
2022-11-26T19:44:08.406Z,16.33
2022-11-26T19:46:41.260Z,15.07
2022-11-26T19:49:13.144Z,14.33
2022-11-26T19:51:51.473Z,15.70
2022-11-26T19:54:23.277Z,14.83
2022-11-26T19:56:55.267Z,13.67
2022-11-26T19:59:30.199Z,13.50
2022-11-26T20:01:59.561Z,11.53
2022-11-26T20:04:29.723Z,10.20
2022-11-26T20:07:04.142Z,10.07
2022-11-26T20:09:32.543Z,10.77
2022-11-26T20:12:05.326Z,10.40
2022-11-26T20:14:35.857Z,10.47
2022-11-26T20:17:09.015Z,9.43
2022-11-26T20:19:41.820Z,8.67
2022-11-26T20:22:16.445Z,10.10
2022-11-26T20:24:45.065Z,11.10
2022-11-26T20:27:19.758Z,10.17
2022-11-26T20:29:49.548Z,10.20
2022-11-26T20:32:23.889Z,9.87
2022-11-26T20:34:52.263Z,10.10
2022-11-26T20:37:22.966Z,10.53
2022-11-26T20:39:51.377Z,10.40
2022-11-26T20:42:27.424Z,10.17
2022-11-26T20:44:58.063Z,10.93
2022-11-26T20:47:29.776Z,10.83
2022-11-26T20:50:01.141Z,10.07
2022-11-26T20:52:32.780Z,10.40
2022-11-26T20:55:07.313Z,10.00
2022-11-26T20:57:38.306Z,10.10
2022-11-26T21:00:16.965Z,14.17
2022-11-26T21:02:45.952Z,13.97
2022-11-26T21:05:17.765Z,12.40
2022-11-26T21:07:52.231Z,11.80
2022-11-26T21:10:31.381Z,14.33
2022-11-26T21:13:02.189Z,12.60
2022-11-26T21:15:41.530Z,14.33
2022-11-26T21:18:16.284Z,16.97
2022-11-26T21:20:50.553Z,15.07
2022-11-26T21:23:23.536Z,13.97
2022-11-26T21:25:56.731Z,13.03
2022-11-26T21:28:26.828Z,12.37
2022-11-26T21:30:55.399Z,12.93
2022-11-26T21:33:30.391Z,13.70
2022-11-26T21:36:06.013Z,14.13
2022-11-26T21:38:36.825Z,12.63
2022-11-26T21:41:11.626Z,12.17
2022-11-26T21:43:43.241Z,12.80
2022-11-26T21:46:16.437Z,11.80
2022-11-26T21:48:46.109Z,11.63
2022-11-26T21:51:16.942Z,11.53
2022-11-26T21:53:48.312Z,14.87
2022-11-26T21:56:19.627Z,15.03
2022-11-26T21:58:50.589Z,13.23
2022-11-26T22:01:20.852Z,12.63
2022-11-26T22:03:59.006Z,11.23
2022-11-26T22:06:28.020Z,11.57
2022-11-26T22:08:57.015Z,11.40
2022-11-26T22:11:29.474Z,11.77
2022-11-26T22:14:00.107Z,10.23
2022-11-26T22:16:31.783Z,14.07
2022-11-26T22:19:02.207Z,12.00
2022-11-26T22:21:36.505Z,12.93
2022-11-26T22:24:08.851Z,11.47
2022-11-26T22:26:40.820Z,12.77
2022-11-26T22:29:13.028Z,12.30
2022-11-26T22:31:42.386Z,12.30
2022-11-26T22:34:15.766Z,11.10
2022-11-26T22:36:46.909Z,11.40
2022-11-26T22:39:21.338Z,13.47
2022-11-26T22:41:50.453Z,11.73
2022-11-26T22:44:20.739Z,13.27
2022-11-26T22:46:57.195Z,11.37
2022-11-26T22:49:25.863Z,10.10
2022-11-26T22:52:19.616Z,11.37
2022-11-26T22:54:48.820Z,11.37
2022-11-26T22:57:21.063Z,12.27
2022-11-26T22:59:59.668Z,10.97
2022-11-26T23:02:29.000Z,12.90
2022-11-26T23:04:57.622Z,14.03
2022-11-26T23:07:26.369Z,14.53
2022-11-26T23:09:55.838Z,14.20
2022-11-26T23:12:24.640Z,13.37
2022-11-26T23:14:56.182Z,13.30
2022-11-26T23:17:26.581Z,11.60
2022-11-26T23:19:55.615Z,10.80
2022-11-26T23:22:24.210Z,10.63
2022-11-26T23:24:55.251Z,10.37
2022-11-26T23:27:23.897Z,10.03
2022-11-26T23:29:55.069Z,9.90
2022-11-26T23:32:30.976Z,10.93
2022-11-26T23:35:00.650Z,10.27
2022-11-26T23:37:35.363Z,11.30
2022-11-26T23:40:04.800Z,11.97
2022-11-26T23:42:36.093Z,71.00
2022-11-26T23:45:05.082Z,70.33
2022-11-26T23:47:36.496Z,20.40
2022-11-26T23:50:11.472Z,13.90
